シンガポール/チャンギ の空港の天気 - METARとTAF

シンガポール・チャンギ国際空港 ( WSSS / SIN ) - シンガポール Changi
飛行場実況気象(Metar)
観測時間01/29 15:30 SGT (01/29 07:30 UTC)
風向・風速北北東 5m/s
視程10km以上
天気現象
少しの雲 雲底高度 670m
全天の8割程度の雲 雲底高度 9140m
気温32℃
湿度59%
気圧1008hPa
METARWSSS 290730Z 02010KT 350V050 9999 FEW022 BKN300 32/23 Q1008 NOSIG
過去の天気等 Google飛行場航空写真 Wunderground天気予報

過去48時間のMETAR

飛行場予報(TAF)
発表時間: 1/29 13:00 SGT (1/29 05:00 UTC)
予報対象時間: 29日14時 SGT ~ 30日20時 SGT
風向・風速北 5m/s
視程10km以上
少しの雲 雲底高度 460m
全天の4割程度の雲 雲底高度 610m
TAF WSSS 290500Z 2906/3012 01010KT 9999 FEW015 SCT020